createdAt,value
2024-03-11T00:00:04.310Z,5.46
2024-03-11T00:00:59.469Z,5.46
2024-03-11T00:01:54.848Z,5.43
2024-03-11T00:02:50.416Z,5.42
2024-03-11T00:03:45.917Z,5.42
2024-03-11T00:04:40.892Z,5.39
2024-03-11T00:05:37.580Z,5.36
2024-03-11T00:06:32.727Z,5.37
2024-03-11T00:07:28.604Z,5.35
2024-03-11T00:08:23.829Z,5.34
2024-03-11T00:09:18.900Z,5.31
2024-03-11T00:10:14.907Z,5.29
2024-03-11T00:11:09.988Z,5.26
2024-03-11T00:12:05.737Z,5.29
2024-03-11T00:13:00.749Z,5.29
2024-03-11T00:13:56.168Z,5.26
2024-03-11T00:14:51.901Z,5.24
2024-03-11T00:15:47.047Z,5.27
2024-03-11T00:16:42.191Z,5.26
2024-03-11T00:17:38.622Z,5.23
2024-03-11T00:18:33.776Z,5.24
2024-03-11T00:19:29.396Z,5.26
2024-03-11T00:20:24.764Z,5.29
2024-03-11T00:21:19.862Z,5.29
2024-03-11T00:22:15.749Z,5.28
2024-03-11T00:23:10.876Z,5.30
2024-03-11T00:24:07.746Z,5.32
2024-03-11T00:25:02.039Z,5.29
2024-03-11T00:25:57.733Z,5.27
2024-03-11T00:26:53.921Z,5.27
2024-03-11T00:27:48.980Z,5.29
2024-03-11T00:28:44.325Z,5.29
2024-03-11T00:29:40.438Z,5.28
2024-03-11T00:30:35.454Z,5.28
2024-03-11T00:31:31.365Z,5.28
2024-03-11T00:32:26.525Z,5.24
2024-03-11T00:33:21.966Z,5.22
2024-03-11T00:34:17.624Z,5.22
2024-03-11T00:35:12.824Z,5.23
2024-03-11T00:36:08.002Z,5.24
2024-03-11T00:37:04.500Z,5.23
2024-03-11T00:37:59.557Z,5.23
2024-03-11T00:38:54.759Z,5.21
2024-03-11T00:39:51.114Z,5.22
2024-03-11T00:40:46.337Z,5.23
2024-03-11T00:41:42.203Z,5.25
2024-03-11T00:42:37.202Z,5.28
2024-03-11T00:43:32.342Z,5.27
2024-03-11T00:44:28.145Z,5.20
2024-03-11T00:45:23.364Z,5.19
2024-03-11T00:46:18.970Z,5.20
2024-03-11T00:47:14.136Z,5.19
2024-03-11T00:48:09.332Z,5.17
2024-03-11T00:49:08.022Z,5.13
2024-03-11T00:50:00.431Z,5.15
2024-03-11T00:50:55.562Z,5.16
2024-03-11T00:51:50.585Z,5.20
2024-03-11T00:52:45.825Z,5.23
2024-03-11T00:53:41.030Z,5.21
2024-03-11T00:54:35.904Z,5.22
2024-03-11T00:55:31.164Z,5.20
2024-03-11T00:56:25.975Z,5.20
2024-03-11T00:57:21.026Z,5.20
2024-03-11T00:58:16.000Z,5.19
2024-03-11T00:59:11.169Z,5.16
2024-03-11T01:00:06.347Z,5.14
2024-03-11T01:01:01.297Z,5.14
2024-03-11T01:01:56.303Z,5.15
2024-03-11T01:02:51.345Z,5.13
2024-03-11T01:03:46.345Z,5.15
2024-03-11T01:04:41.494Z,5.16
2024-03-11T01:05:36.679Z,5.19
2024-03-11T01:06:31.616Z,5.19
2024-03-11T01:07:35.076Z,5.20
2024-03-11T01:08:22.805Z,5.11
2024-03-11T01:09:16.743Z,5.08
2024-03-11T01:10:12.735Z,5.06
2024-03-11T01:11:07.002Z,5.06
2024-03-11T01:12:02.072Z,5.06
2024-03-11T01:12:56.912Z,5.06
2024-03-11T01:13:51.993Z,5.05
2024-03-11T01:14:47.039Z,5.06
2024-03-11T01:15:42.643Z,5.05
2024-03-11T01:16:37.516Z,5.07
2024-03-11T01:17:32.711Z,5.06
2024-03-11T01:18:28.065Z,5.03
2024-03-11T01:19:23.730Z,4.98
2024-03-11T01:20:18.457Z,4.98
2024-03-11T01:21:13.518Z,4.98
2024-03-11T01:22:08.667Z,4.98
2024-03-11T01:23:03.871Z,4.98
2024-03-11T01:23:58.979Z,4.99
2024-03-11T01:24:54.134Z,5.01
2024-03-11T01:25:49.738Z,5.01
2024-03-11T01:26:45.306Z,5.02
2024-03-11T01:27:40.432Z,5.03
2024-03-11T01:28:36.332Z,5.07
2024-03-11T01:29:31.510Z,5.08
2024-03-11T01:30:26.987Z,5.07
2024-03-11T01:31:22.423Z,5.04
2024-03-11T01:32:17.681Z,5.04
2024-03-11T01:33:12.670Z,5.03
2024-03-11T01:34:09.045Z,5.03
2024-03-11T01:35:04.212Z,5.03
2024-03-11T01:36:00.230Z,5.02
2024-03-11T01:36:55.350Z,5.03
2024-03-11T01:37:50.707Z,4.99
2024-03-11T01:38:46.476Z,4.97
2024-03-11T01:39:41.677Z,4.97
2024-03-11T01:40:37.683Z,4.97
2024-03-11T01:41:32.737Z,4.94
2024-03-11T01:42:28.045Z,4.94
2024-03-11T01:43:23.945Z,4.94
2024-03-11T01:44:19.225Z,4.95
2024-03-11T01:45:14.568Z,4.95
2024-03-11T01:46:10.579Z,4.95
2024-03-11T01:47:05.950Z,4.95
2024-03-11T01:48:01.811Z,4.93
2024-03-11T01:48:56.791Z,4.94
2024-03-11T01:49:51.993Z,4.92
2024-03-11T01:50:47.832Z,4.89
2024-03-11T01:51:42.909Z,4.86
2024-03-11T01:52:38.868Z,4.80
2024-03-11T01:53:34.034Z,4.77
2024-03-11T01:54:29.188Z,4.75
2024-03-11T01:55:25.270Z,4.74
2024-03-11T01:56:20.452Z,4.75
2024-03-11T01:57:15.573Z,4.69
2024-03-11T01:58:12.527Z,4.67
2024-03-11T01:59:07.130Z,4.65
2024-03-11T02:00:02.903Z,4.63
2024-03-11T02:00:58.193Z,4.61
2024-03-11T02:01:53.469Z,4.59
2024-03-11T02:02:49.145Z,4.58
2024-03-11T02:03:44.287Z,4.58
2024-03-11T02:04:40.180Z,4.57
2024-03-11T02:05:35.481Z,4.52
2024-03-11T02:06:30.684Z,4.50
2024-03-11T02:07:26.293Z,4.47
2024-03-11T02:08:21.539Z,4.46
2024-03-11T02:09:16.565Z,4.45
2024-03-11T02:10:12.977Z,4.46
2024-03-11T02:11:08.382Z,4.47
2024-03-11T02:12:04.949Z,4.47
2024-03-11T02:12:59.105Z,4.47
2024-03-11T02:13:54.391Z,4.46
2024-03-11T02:14:50.305Z,4.46
2024-03-11T02:15:45.326Z,4.45
2024-03-11T02:16:41.292Z,4.44
2024-03-11T02:17:37.514Z,4.43
2024-03-11T02:18:31.624Z,4.42
2024-03-11T02:19:27.313Z,4.44
2024-03-11T02:20:22.875Z,4.46
2024-03-11T02:21:17.744Z,4.44
2024-03-11T02:22:14.970Z,4.42
2024-03-11T02:23:09.549Z,4.41
2024-03-11T02:24:05.429Z,4.42
2024-03-11T02:25:00.640Z,4.44
2024-03-11T02:25:55.966Z,4.45
2024-03-11T02:26:51.007Z,4.46
2024-03-11T02:27:46.170Z,4.48
2024-03-11T02:28:41.169Z,4.48
2024-03-11T02:29:36.258Z,4.47
2024-03-11T02:30:31.429Z,4.45
2024-03-11T02:31:26.598Z,4.46
2024-03-11T02:32:22.793Z,4.42
2024-03-11T02:33:16.970Z,4.41
2024-03-11T02:34:11.987Z,4.39
2024-03-11T02:35:07.210Z,4.37
2024-03-11T02:36:05.134Z,4.36
2024-03-11T02:37:00.122Z,4.33
2024-03-11T02:37:55.194Z,4.28
2024-03-11T02:38:50.297Z,4.26
2024-03-11T02:39:45.368Z,4.24
2024-03-11T02:40:40.501Z,4.21
2024-03-11T02:41:35.439Z,4.20
2024-03-11T02:42:30.480Z,4.20
2024-03-11T02:43:25.537Z,4.19
2024-03-11T02:44:21.436Z,4.17
2024-03-11T02:45:16.354Z,4.16
2024-03-11T02:46:11.032Z,4.14
2024-03-11T02:47:06.233Z,4.12
2024-03-11T02:48:01.477Z,4.10
2024-03-11T02:48:56.279Z,4.07
2024-03-11T02:49:51.300Z,4.04
2024-03-11T02:50:46.496Z,4.03
2024-03-11T02:51:41.512Z,4.03
2024-03-11T02:52:36.566Z,4.04
2024-03-11T02:53:31.784Z,4.00
2024-03-11T02:54:27.681Z,4.02
2024-03-11T02:55:22.165Z,4.04
2024-03-11T02:56:17.278Z,4.04
2024-03-11T02:57:12.249Z,4.02
2024-03-11T02:58:07.294Z,4.03
2024-03-11T02:59:02.345Z,4.04
2024-03-11T02:59:57.395Z,4.03
2024-03-11T03:00:52.545Z,4.03
2024-03-11T03:01:47.461Z,4.02
2024-03-11T03:02:45.636Z,4.00
2024-03-11T03:03:40.781Z,3.99
2024-03-11T03:04:36.045Z,4.00
2024-03-11T03:05:31.274Z,3.99
2024-03-11T03:06:26.184Z,3.97
2024-03-11T03:07:22.050Z,3.96
2024-03-11T03:08:17.223Z,3.96
2024-03-11T03:09:12.525Z,3.96
2024-03-11T03:10:08.295Z,3.96
2024-03-11T03:11:03.695Z,3.94
2024-03-11T03:11:59.156Z,3.95
2024-03-11T03:12:54.239Z,3.96
2024-03-11T03:13:49.538Z,3.96
2024-03-11T03:14:45.369Z,3.95
2024-03-11T03:15:40.697Z,3.94
2024-03-11T03:16:35.758Z,3.91
2024-03-11T03:17:32.215Z,3.92
2024-03-11T03:18:27.477Z,3.91
2024-03-11T03:19:23.982Z,3.89
2024-03-11T03:20:18.314Z,3.88
2024-03-11T03:21:13.395Z,3.88
2024-03-11T03:22:09.317Z,3.85
2024-03-11T03:23:04.505Z,3.82
2024-03-11T03:24:00.392Z,3.84
2024-03-11T03:24:55.513Z,3.85
2024-03-11T03:25:50.909Z,3.86
2024-03-11T03:26:46.555Z,3.86
2024-03-11T03:27:41.793Z,3.91
2024-03-11T03:28:36.908Z,3.94
2024-03-11T03:29:33.286Z,3.93
2024-03-11T03:30:28.433Z,3.95
2024-03-11T03:31:24.182Z,3.96
2024-03-11T03:32:19.366Z,3.97
2024-03-11T03:33:14.688Z,3.93
2024-03-11T03:34:10.423Z,3.87
2024-03-11T03:35:05.664Z,3.84
2024-03-11T03:36:01.362Z,3.86
2024-03-11T03:36:56.412Z,3.87
2024-03-11T03:37:51.700Z,3.85
2024-03-11T03:38:47.654Z,3.84
2024-03-11T03:39:42.909Z,3.88
2024-03-11T03:40:38.436Z,3.89
2024-03-11T03:41:34.336Z,3.88
2024-03-11T03:42:29.507Z,3.88
2024-03-11T03:43:25.233Z,3.86
2024-03-11T03:44:20.429Z,3.85
2024-03-11T03:45:15.897Z,3.83
2024-03-11T03:46:11.506Z,3.81
2024-03-11T03:47:06.687Z,3.82
2024-03-11T03:48:02.690Z,3.84
2024-03-11T03:48:57.632Z,3.85
2024-03-11T03:49:53.120Z,3.86
2024-03-11T03:50:48.596Z,3.86
2024-03-11T03:51:43.759Z,3.89
2024-03-11T03:52:39.002Z,3.89
2024-03-11T03:53:35.167Z,3.89
2024-03-11T03:54:30.403Z,3.88
2024-03-11T03:55:26.148Z,3.88
2024-03-11T03:56:21.445Z,3.87
2024-03-11T03:57:16.578Z,3.88
2024-03-11T03:58:12.416Z,3.86
2024-03-11T03:59:07.645Z,3.87
2024-03-11T04:00:03.484Z,3.87
2024-03-11T04:00:58.697Z,3.86
2024-03-11T04:01:53.747Z,3.86
2024-03-11T04:02:49.533Z,3.85
2024-03-11T04:03:44.576Z,3.88
2024-03-11T04:04:39.750Z,3.89
2024-03-11T04:05:36.301Z,3.88
2024-03-11T04:06:31.208Z,3.87
2024-03-11T04:07:26.443Z,3.87
2024-03-11T04:08:21.735Z,3.89
2024-03-11T04:09:19.277Z,3.92
2024-03-11T04:10:14.714Z,3.92
2024-03-11T04:11:09.766Z,3.93
2024-03-11T04:12:05.137Z,3.93
2024-03-11T04:13:00.066Z,3.93
2024-03-11T04:13:55.262Z,3.93
2024-03-11T04:14:51.481Z,3.92
2024-03-11T04:15:46.695Z,3.90
2024-03-11T04:16:41.711Z,3.90
2024-03-11T04:17:37.628Z,3.88
2024-03-11T04:18:32.844Z,3.89
2024-03-11T04:19:28.010Z,3.91
2024-03-11T04:20:23.159Z,3.93
2024-03-11T04:21:18.392Z,3.92
2024-03-11T04:22:13.518Z,3.94
2024-03-11T04:23:09.946Z,3.93
2024-03-11T04:24:05.061Z,3.93
2024-03-11T04:25:00.200Z,3.95
2024-03-11T04:25:55.392Z,3.93
2024-03-11T04:26:50.483Z,3.92
2024-03-11T04:27:46.450Z,3.93
2024-03-11T04:28:41.604Z,3.91
2024-03-11T04:29:36.829Z,3.92
2024-03-11T04:30:32.011Z,3.91
2024-03-11T04:31:27.329Z,3.90
2024-03-11T04:32:22.419Z,3.89
2024-03-11T04:33:17.572Z,3.92
2024-03-11T04:34:12.880Z,3.91
2024-03-11T04:35:08.075Z,3.94
2024-03-11T04:36:03.481Z,3.93
2024-03-11T04:36:58.492Z,3.94
2024-03-11T04:37:53.609Z,3.93
2024-03-11T04:38:49.549Z,3.92
2024-03-11T04:39:44.529Z,3.91
2024-03-11T04:40:40.256Z,3.92
2024-03-11T04:41:35.630Z,3.91
2024-03-11T04:42:30.666Z,3.90
2024-03-11T04:43:26.569Z,3.89
2024-03-11T04:44:21.940Z,3.89
2024-03-11T04:45:17.006Z,3.87
2024-03-11T04:46:13.573Z,3.85
2024-03-11T04:47:08.704Z,3.84
2024-03-11T04:48:04.472Z,3.88
2024-03-11T04:48:59.557Z,3.90
2024-03-11T04:49:54.727Z,3.90
2024-03-11T04:50:50.766Z,3.88
2024-03-11T04:51:45.805Z,3.87
2024-03-11T04:52:41.701Z,3.88
2024-03-11T04:53:36.751Z,3.86
2024-03-11T04:54:32.093Z,3.84
2024-03-11T04:55:27.845Z,3.83
2024-03-11T04:56:23.307Z,3.81
2024-03-11T04:57:18.315Z,3.79
2024-03-11T04:58:14.748Z,3.77
2024-03-11T04:59:09.970Z,3.75
2024-03-11T05:00:05.764Z,3.75
2024-03-11T05:01:00.917Z,3.73
2024-03-11T05:01:56.416Z,3.74
2024-03-11T05:02:51.965Z,3.73
2024-03-11T05:03:47.132Z,3.73
2024-03-11T05:04:42.879Z,3.73
2024-03-11T05:05:38.580Z,3.71
2024-03-11T05:06:33.482Z,3.69
2024-03-11T05:07:29.018Z,3.68
2024-03-11T05:08:24.196Z,3.70
2024-03-11T05:09:19.415Z,3.71
2024-03-11T05:10:15.549Z,3.71
2024-03-11T05:11:11.440Z,3.71
2024-03-11T05:12:06.824Z,3.70
2024-03-11T05:13:01.758Z,3.71
2024-03-11T05:13:56.816Z,3.69
2024-03-11T05:14:52.734Z,3.67
2024-03-11T05:15:47.778Z,3.66
2024-03-11T05:16:43.564Z,3.67
2024-03-11T05:17:39.662Z,3.68
2024-03-11T05:18:33.961Z,3.68
2024-03-11T05:19:29.684Z,3.69
2024-03-11T05:20:24.950Z,3.71
2024-03-11T05:21:20.092Z,3.71
2024-03-11T05:22:17.259Z,3.74
2024-03-11T05:23:11.612Z,3.77
2024-03-11T05:24:06.915Z,3.76
2024-03-11T05:25:03.013Z,3.73
2024-03-11T05:25:58.265Z,3.73
2024-03-11T05:26:54.135Z,3.75
2024-03-11T05:27:49.997Z,3.75
2024-03-11T05:28:44.702Z,3.74
2024-03-11T05:29:40.629Z,3.72
2024-03-11T05:30:35.728Z,3.70
2024-03-11T05:31:32.101Z,3.68
2024-03-11T05:32:26.819Z,3.66
2024-03-11T05:33:22.190Z,3.64
2024-03-11T05:34:17.836Z,3.65
2024-03-11T05:35:13.131Z,3.67
2024-03-11T05:36:08.250Z,3.65
2024-03-11T05:37:04.885Z,3.65
2024-03-11T05:37:59.919Z,3.70
2024-03-11T05:38:55.161Z,3.74
2024-03-11T05:39:50.364Z,3.76
2024-03-11T05:40:48.064Z,3.76
2024-03-11T05:41:43.498Z,3.73
2024-03-11T05:42:38.674Z,3.74
2024-03-11T05:43:34.003Z,3.74
2024-03-11T05:44:29.040Z,3.73
2024-03-11T05:45:26.344Z,3.70
2024-03-11T05:46:19.128Z,3.66
2024-03-11T05:47:14.267Z,3.64
2024-03-11T05:48:09.297Z,3.63
2024-03-11T05:49:04.250Z,3.58
2024-03-11T05:49:59.454Z,3.56
2024-03-11T05:50:54.599Z,3.49
2024-03-11T05:51:49.655Z,3.47
2024-03-11T05:52:44.953Z,3.42
2024-03-11T05:53:39.794Z,3.40
2024-03-11T05:54:34.869Z,3.37
2024-03-11T05:55:29.921Z,3.36
2024-03-11T05:56:25.239Z,3.35
2024-03-11T05:57:20.346Z,3.36
2024-03-11T05:58:16.184Z,3.32
2024-03-11T05:59:12.999Z,3.31
2024-03-11T06:00:07.837Z,3.26
2024-03-11T06:01:02.229Z,3.24
2024-03-11T06:01:57.440Z,3.25
2024-03-11T06:02:52.426Z,3.26
2024-03-11T06:03:47.430Z,3.27
2024-03-11T06:04:42.467Z,3.29
2024-03-11T06:05:39.225Z,3.30
2024-03-11T06:06:34.400Z,3.32
2024-03-11T06:07:29.927Z,3.34
2024-03-11T06:08:25.308Z,3.39
2024-03-11T06:09:21.087Z,3.44
2024-03-11T06:10:16.429Z,3.51
2024-03-11T06:11:11.850Z,3.57
2024-03-11T06:12:07.045Z,3.62
2024-03-11T06:13:02.466Z,3.72
2024-03-11T06:13:57.589Z,3.79
2024-03-11T06:14:53.023Z,3.86
2024-03-11T06:15:48.397Z,3.90
2024-03-11T06:16:43.828Z,3.94
2024-03-11T06:17:39.396Z,3.98
2024-03-11T06:18:34.838Z,4.03
2024-03-11T06:19:29.920Z,4.05
2024-03-11T06:20:25.401Z,4.06
2024-03-11T06:21:20.689Z,4.06
2024-03-11T06:22:16.848Z,4.06
2024-03-11T06:23:11.638Z,4.07
2024-03-11T06:24:06.773Z,4.11
2024-03-11T06:25:02.790Z,4.09
2024-03-11T06:25:57.518Z,4.08
2024-03-11T06:26:52.683Z,4.12
2024-03-11T06:27:48.927Z,4.16
2024-03-11T06:28:43.260Z,4.19
2024-03-11T06:29:38.693Z,4.23
2024-03-11T06:30:33.614Z,4.26
2024-03-11T06:31:28.614Z,4.29
2024-03-11T06:32:23.599Z,4.29
2024-03-11T06:33:18.980Z,4.34
2024-03-11T06:34:13.733Z,4.42
2024-03-11T06:35:08.760Z,4.47
2024-03-11T06:36:03.741Z,4.49
2024-03-11T06:36:58.794Z,4.49
2024-03-11T06:37:53.989Z,4.51
2024-03-11T06:38:48.911Z,4.51
2024-03-11T06:39:43.884Z,4.54
2024-03-11T06:40:39.162Z,4.57
2024-03-11T06:41:36.912Z,4.58
2024-03-11T06:42:29.160Z,4.57
2024-03-11T06:43:24.409Z,4.57
2024-03-11T06:44:24.888Z,4.59
2024-03-11T06:45:15.503Z,4.56
2024-03-11T06:46:09.440Z,4.48
2024-03-11T06:47:04.497Z,4.35
2024-03-11T06:47:59.804Z,4.34
2024-03-11T06:48:54.869Z,4.39
2024-03-11T06:49:50.433Z,4.44
2024-03-11T06:50:45.624Z,4.40
2024-03-11T06:51:41.103Z,4.29
2024-03-11T06:52:36.436Z,4.31
2024-03-11T06:53:31.791Z,4.36
2024-03-11T06:54:27.094Z,4.42
2024-03-11T06:55:22.554Z,4.49
2024-03-11T06:56:17.875Z,4.56
2024-03-11T06:57:13.497Z,4.55
2024-03-11T06:58:08.984Z,4.43
2024-03-11T06:59:04.212Z,4.37
2024-03-11T06:59:59.521Z,4.41
2024-03-11T07:00:54.653Z,4.45
2024-03-11T07:01:49.678Z,4.52
2024-03-11T07:02:44.859Z,4.60
2024-03-11T07:03:40.091Z,4.68
2024-03-11T07:04:35.065Z,4.73
2024-03-11T07:05:30.738Z,4.80
2024-03-11T07:06:25.196Z,4.85
2024-03-11T07:07:20.074Z,4.90
2024-03-11T07:08:15.366Z,4.95
2024-03-11T07:09:11.304Z,4.99
2024-03-11T07:10:06.388Z,4.97
2024-03-11T07:11:03.247Z,4.93
2024-03-11T07:11:56.536Z,4.92
2024-03-11T07:12:51.481Z,4.92
2024-03-11T07:13:48.218Z,4.89
2024-03-11T07:14:43.362Z,4.89
2024-03-11T07:15:38.835Z,4.94
2024-03-11T07:16:34.286Z,4.97
2024-03-11T07:17:29.805Z,4.99
2024-03-11T07:18:25.253Z,5.05
2024-03-11T07:19:20.618Z,5.06
2024-03-11T07:20:15.875Z,5.00
2024-03-11T07:21:11.372Z,4.97
2024-03-11T07:22:06.667Z,4.97
2024-03-11T07:23:02.285Z,4.98
2024-03-11T07:23:57.651Z,5.02
2024-03-11T07:24:52.854Z,5.02
2024-03-11T07:25:48.199Z,5.01
2024-03-11T07:26:44.195Z,5.04
2024-03-11T07:27:39.621Z,5.12
2024-03-11T07:28:35.144Z,5.19
2024-03-11T07:29:30.367Z,5.27
2024-03-11T07:30:25.691Z,5.36
2024-03-11T07:31:21.046Z,5.46
2024-03-11T07:32:16.465Z,5.50
2024-03-11T07:33:11.809Z,5.41
2024-03-11T07:34:07.291Z,5.25
2024-03-11T07:35:02.608Z,5.33
2024-03-11T07:35:57.972Z,5.46
2024-03-11T07:36:53.230Z,5.57
2024-03-11T07:37:48.834Z,5.61
2024-03-11T07:38:43.998Z,5.63
2024-03-11T07:39:39.036Z,5.63
2024-03-11T07:40:34.180Z,5.53
2024-03-11T07:41:29.242Z,5.53
2024-03-11T07:42:24.338Z,5.54
2024-03-11T07:43:19.400Z,5.60
2024-03-11T07:44:14.464Z,5.69
2024-03-11T07:45:09.537Z,5.74
2024-03-11T07:46:04.616Z,5.81
2024-03-11T07:46:59.726Z,5.80
2024-03-11T07:47:54.859Z,5.83
2024-03-11T07:48:49.898Z,5.91
2024-03-11T07:49:44.876Z,5.94
2024-03-11T07:50:40.047Z,6.01
2024-03-11T07:51:35.074Z,6.04
2024-03-11T07:52:30.138Z,6.07
2024-03-11T07:53:25.138Z,6.16
2024-03-11T07:54:21.021Z,6.26
2024-03-11T07:55:15.660Z,6.37
2024-03-11T07:56:11.011Z,6.50
2024-03-11T07:57:06.342Z,6.59
2024-03-11T07:58:01.798Z,6.64
2024-03-11T07:58:58.952Z,6.65
2024-03-11T07:59:52.647Z,6.64
2024-03-11T08:00:48.093Z,6.65
2024-03-11T08:01:43.357Z,6.68
2024-03-11T08:02:38.728Z,6.65
2024-03-11T08:03:33.838Z,6.59
2024-03-11T08:04:28.902Z,6.48
2024-03-11T08:05:23.928Z,6.39
2024-03-11T08:06:18.889Z,6.48
2024-03-11T08:07:14.043Z,6.69
2024-03-11T08:08:09.157Z,6.93
2024-03-11T08:09:04.962Z,7.23
2024-03-11T08:09:59.534Z,7.51
2024-03-11T08:10:54.660Z,7.80
2024-03-11T08:11:49.243Z,8.13
2024-03-11T08:12:44.359Z,8.45
2024-03-11T08:13:39.570Z,8.70
2024-03-11T08:14:35.729Z,8.89
2024-03-11T08:15:29.632Z,8.81
2024-03-11T08:16:24.711Z,8.65
2024-03-11T08:17:19.627Z,8.55
2024-03-11T08:18:15.140Z,8.56
2024-03-11T08:19:10.559Z,8.65
2024-03-11T08:20:05.969Z,8.55
2024-03-11T08:21:01.327Z,8.51
2024-03-11T08:21:57.025Z,8.49
2024-03-11T08:22:52.409Z,8.52
2024-03-11T08:23:47.904Z,8.62
2024-03-11T08:24:43.623Z,8.91
2024-03-11T08:25:38.939Z,9.25
2024-03-11T08:26:34.490Z,9.46
2024-03-11T08:27:29.996Z,9.78
2024-03-11T08:28:25.901Z,10.08
2024-03-11T08:29:24.766Z,9.78
2024-03-11T08:30:19.826Z,9.79
2024-03-11T08:31:15.256Z,9.97
2024-03-11T08:32:10.747Z,10.13
2024-03-11T08:33:06.323Z,10.18
2024-03-11T08:34:01.561Z,9.91
2024-03-11T08:34:57.075Z,9.76
2024-03-11T08:35:52.439Z,9.88
2024-03-11T08:36:48.036Z,10.10
2024-03-11T08:37:43.368Z,10.33
2024-03-11T08:38:38.827Z,10.50
2024-03-11T08:39:34.338Z,10.72
2024-03-11T08:40:29.647Z,10.82
2024-03-11T08:41:26.068Z,10.78
2024-03-11T08:42:20.619Z,10.83
2024-03-11T08:43:15.658Z,10.94
2024-03-11T08:44:10.756Z,11.08
2024-03-11T08:45:05.958Z,11.28
2024-03-11T08:46:01.010Z,11.50
2024-03-11T08:46:56.208Z,11.66
2024-03-11T08:47:51.402Z,11.67
2024-03-11T08:48:46.412Z,11.64
2024-03-11T08:49:41.509Z,11.51
2024-03-11T08:50:38.334Z,11.36
2024-03-11T08:51:33.444Z,10.96
2024-03-11T08:52:28.525Z,10.81
2024-03-11T08:53:23.564Z,10.82
2024-03-11T08:54:18.516Z,11.05
2024-03-11T08:55:13.779Z,10.79
2024-03-11T08:56:08.694Z,10.84
2024-03-11T08:57:03.810Z,11.09
2024-03-11T08:57:58.885Z,11.04
2024-03-11T08:58:54.104Z,11.29
2024-03-11T08:59:50.558Z,11.67
2024-03-11T09:00:46.167Z,11.86
2024-03-11T09:01:41.806Z,12.11
2024-03-11T09:02:37.262Z,12.32
2024-03-11T09:03:32.808Z,12.48
2024-03-11T09:04:28.573Z,12.19
2024-03-11T09:05:24.025Z,11.85
2024-03-11T09:06:19.804Z,11.45
2024-03-11T09:07:15.241Z,11.45
2024-03-11T09:08:10.774Z,11.71
2024-03-11T09:09:06.503Z,12.04
2024-03-11T09:10:02.121Z,12.31
2024-03-11T09:10:57.301Z,12.56
2024-03-11T09:11:54.058Z,12.84
2024-03-11T09:12:49.502Z,13.07
2024-03-11T09:13:45.486Z,13.26
2024-03-11T09:14:40.828Z,13.39
2024-03-11T09:15:36.543Z,13.40
2024-03-11T09:16:32.198Z,13.26
2024-03-11T09:17:27.653Z,13.33
2024-03-11T09:18:23.598Z,13.43
2024-03-11T09:19:19.016Z,13.44
2024-03-11T09:20:14.299Z,13.61
2024-03-11T09:21:10.310Z,13.71
2024-03-11T09:22:05.772Z,13.67
2024-03-11T09:23:01.347Z,13.57
2024-03-11T09:23:57.661Z,13.50
2024-03-11T09:24:53.161Z,13.49
2024-03-11T09:25:49.058Z,13.51
2024-03-11T09:26:44.410Z,13.61
2024-03-11T09:27:39.905Z,13.71
2024-03-11T09:28:35.546Z,13.81
2024-03-11T09:29:31.131Z,13.92
2024-03-11T09:30:27.296Z,13.99
2024-03-11T09:31:22.347Z,14.04
2024-03-11T09:32:17.949Z,13.87
2024-03-11T09:33:14.018Z,13.32
2024-03-11T09:34:10.129Z,12.99
2024-03-11T09:35:04.767Z,12.75
2024-03-11T09:36:00.035Z,12.79
2024-03-11T09:36:54.965Z,13.02
2024-03-11T09:37:50.029Z,13.04
2024-03-11T09:38:45.104Z,13.01
2024-03-11T09:39:40.192Z,12.73
2024-03-11T09:40:35.299Z,12.25
2024-03-11T09:41:30.357Z,12.12
2024-03-11T09:42:25.477Z,12.39
2024-03-11T09:43:20.546Z,12.42
2024-03-11T09:44:18.628Z,12.39
2024-03-11T09:45:11.688Z,12.24
2024-03-11T09:46:07.821Z,12.39
2024-03-11T09:47:02.812Z,12.14
2024-03-11T09:47:59.082Z,12.08
2024-03-11T09:48:53.182Z,12.38
2024-03-11T09:49:48.398Z,12.77
2024-03-11T09:50:44.366Z,12.81
2024-03-11T09:51:39.903Z,12.52
2024-03-11T09:52:35.279Z,12.13
2024-03-11T09:53:31.596Z,11.92
2024-03-11T09:54:26.776Z,12.04
2024-03-11T09:55:22.415Z,12.23
2024-03-11T09:56:18.087Z,12.40
2024-03-11T09:57:13.395Z,12.76
2024-03-11T09:58:09.429Z,12.80
2024-03-11T09:59:04.810Z,12.80
2024-03-11T10:00:00.397Z,12.57
2024-03-11T10:00:57.285Z,12.74
2024-03-11T10:01:52.085Z,13.12
2024-03-11T10:02:47.978Z,13.44
2024-03-11T10:03:43.452Z,13.32
2024-03-11T10:04:38.908Z,13.43
2024-03-11T10:05:34.348Z,13.75
2024-03-11T10:06:29.855Z,14.04
2024-03-11T10:07:26.448Z,14.40
2024-03-11T10:08:21.944Z,14.63
2024-03-11T10:09:17.276Z,14.79
2024-03-11T10:10:13.129Z,14.63
2024-03-11T10:11:08.792Z,14.29
2024-03-11T10:12:04.324Z,13.78
2024-03-11T10:13:00.046Z,13.31
2024-03-11T10:13:54.948Z,13.07
2024-03-11T10:14:49.915Z,12.99
2024-03-11T10:15:45.145Z,12.72
2024-03-11T10:16:40.029Z,12.63
2024-03-11T10:17:35.084Z,12.41
2024-03-11T10:18:30.080Z,12.49
2024-03-11T10:19:25.147Z,12.80
2024-03-11T10:20:20.252Z,13.01
2024-03-11T10:21:18.699Z,13.32
2024-03-11T10:22:13.468Z,13.53
2024-03-11T10:23:08.632Z,13.59
2024-03-11T10:24:03.889Z,13.70
2024-03-11T10:24:58.819Z,13.95
2024-03-11T10:25:53.881Z,14.25
2024-03-11T10:26:49.298Z,14.04
2024-03-11T10:27:44.190Z,13.73
2024-03-11T10:28:39.844Z,13.68
2024-03-11T10:29:34.296Z,13.61
2024-03-11T10:30:29.437Z,13.45
2024-03-11T10:31:25.075Z,13.60
2024-03-11T10:32:20.655Z,13.94
2024-03-11T10:33:16.219Z,14.11
2024-03-11T10:34:12.383Z,14.39
2024-03-11T10:35:07.323Z,14.65
2024-03-11T10:36:02.702Z,14.86
2024-03-11T10:36:59.032Z,14.90
2024-03-11T10:37:54.123Z,14.88
2024-03-11T10:38:49.490Z,14.94
2024-03-11T10:39:45.538Z,14.91
2024-03-11T10:40:40.943Z,15.04
2024-03-11T10:41:36.237Z,15.35
2024-03-11T10:42:32.730Z,15.61
2024-03-11T10:43:28.009Z,15.89
2024-03-11T10:44:23.792Z,15.85
2024-03-11T10:45:19.916Z,15.73
2024-03-11T10:46:14.841Z,15.79
2024-03-11T10:47:11.212Z,15.86
2024-03-11T10:48:06.383Z,16.06
2024-03-11T10:49:03.423Z,16.30
2024-03-11T10:49:57.694Z,16.18
2024-03-11T10:50:53.213Z,16.08
2024-03-11T10:51:49.879Z,16.08
2024-03-11T10:52:45.425Z,15.77
2024-03-11T10:53:40.998Z,15.53
2024-03-11T10:54:37.212Z,15.68
2024-03-11T10:55:32.432Z,15.95
2024-03-11T10:56:28.185Z,16.11
2024-03-11T10:57:23.754Z,16.07
2024-03-11T10:58:19.095Z,16.36
2024-03-11T10:59:15.006Z,16.71
2024-03-11T11:00:10.561Z,16.68
2024-03-11T11:01:06.444Z,16.20
2024-03-11T11:02:01.829Z,15.61
2024-03-11T11:02:57.360Z,15.74
2024-03-11T11:03:53.070Z,15.91
2024-03-11T11:04:48.485Z,15.93
2024-03-11T11:05:44.134Z,15.93
2024-03-11T11:06:40.349Z,15.65
2024-03-11T11:07:35.772Z,15.49
2024-03-11T11:08:31.613Z,15.54
2024-03-11T11:09:27.715Z,15.83
2024-03-11T11:10:22.263Z,16.04
2024-03-11T11:11:18.693Z,15.93
2024-03-11T11:12:14.142Z,15.74
2024-03-11T11:13:09.886Z,15.68
2024-03-11T11:14:05.302Z,15.39
2024-03-11T11:15:00.772Z,14.97
2024-03-11T11:15:56.824Z,14.92
2024-03-11T11:16:52.162Z,14.87
2024-03-11T11:17:47.928Z,14.99
2024-03-11T11:18:44.160Z,15.22
2024-03-11T11:19:39.402Z,15.16
2024-03-11T11:20:34.973Z,14.92
2024-03-11T11:21:30.056Z,14.67
2024-03-11T11:22:25.117Z,14.62
2024-03-11T11:23:20.217Z,14.83
2024-03-11T11:24:15.302Z,15.33
2024-03-11T11:25:10.412Z,15.68
2024-03-11T11:26:05.454Z,15.98
2024-03-11T11:27:00.331Z,16.45
2024-03-11T11:27:55.504Z,16.43
2024-03-11T11:28:50.659Z,16.10
2024-03-11T11:29:45.861Z,15.74
2024-03-11T11:30:40.922Z,15.38
2024-03-11T11:31:35.964Z,14.87
2024-03-11T11:32:31.089Z,14.65
2024-03-11T11:33:26.215Z,14.29
2024-03-11T11:34:24.609Z,14.14
2024-03-11T11:35:19.687Z,14.33
2024-03-11T11:36:14.756Z,14.57
2024-03-11T11:37:09.935Z,14.66
2024-03-11T11:38:05.121Z,14.97
2024-03-11T11:39:00.052Z,15.54
2024-03-11T11:39:55.017Z,15.94
2024-03-11T11:40:50.131Z,16.10
2024-03-11T11:41:45.033Z,16.30
2024-03-11T11:42:40.413Z,16.46
2024-03-11T11:43:36.042Z,16.69
2024-03-11T11:44:31.413Z,16.95
2024-03-11T11:45:26.937Z,17.20
2024-03-11T11:46:22.329Z,17.35
2024-03-11T11:47:17.406Z,17.33
2024-03-11T11:48:12.599Z,16.58
2024-03-11T11:49:07.817Z,15.82
2024-03-11T11:50:03.443Z,15.46
2024-03-11T11:50:57.865Z,15.34
2024-03-11T11:51:55.707Z,15.60
2024-03-11T11:53:53.294Z,16.09
2024-03-11T11:54:41.719Z,16.14
2024-03-11T11:55:35.854Z,16.03
2024-03-11T11:56:30.973Z,15.62
2024-03-11T11:57:26.653Z,15.71
2024-03-11T11:58:21.271Z,16.02
2024-03-11T11:59:16.288Z,16.46
2024-03-11T12:00:11.349Z,16.35
2024-03-11T12:01:06.803Z,16.29
2024-03-11T12:02:02.167Z,16.60
2024-03-11T12:03:00.797Z,16.81
2024-03-11T12:03:53.487Z,16.86
2024-03-11T12:04:48.992Z,16.75
2024-03-11T12:05:45.055Z,16.57
2024-03-11T12:06:40.270Z,16.67
2024-03-11T12:07:37.202Z,16.77
2024-03-11T12:08:31.522Z,16.82
2024-03-11T12:09:26.902Z,16.35
2024-03-11T12:10:23.591Z,15.99